sensor_id;sensor_type;location;lat;lon;timestamp;P1;durP1;ratioP1;P2;durP2;ratioP2
41861;SDS011;27537;57.134;-2.136;2023-11-19T00:00:08;8.07;;;2.78;;
41861;SDS011;27537;57.134;-2.136;2023-11-19T00:02:40;8.75;;;2.47;;
41861;SDS011;27537;57.134;-2.136;2023-11-19T00:05:07;10.38;;;3.47;;
41861;SDS011;27537;57.134;-2.136;2023-11-19T00:10:11;8.40;;;2.92;;
41861;SDS011;27537;57.134;-2.136;2023-11-19T00:12:42;10.93;;;2.97;;
41861;SDS011;27537;57.134;-2.136;2023-11-19T00:15:13;11.35;;;5.00;;
41861;SDS011;27537;57.134;-2.136;2023-11-19T00:17:40;8.23;;;2.58;;
41861;SDS011;27537;57.134;-2.136;2023-11-19T00:20:15;7.63;;;2.67;;
41861;SDS011;27537;57.134;-2.136;2023-11-19T00:22:44;11.25;;;4.32;;
41861;SDS011;27537;57.134;-2.136;2023-11-19T00:25:16;9.55;;;3.03;;
41861;SDS011;27537;57.134;-2.136;2023-11-19T00:27:43;12.07;;;4.07;;
41861;SDS011;27537;57.134;-2.136;2023-11-19T00:30:13;10.63;;;3.20;;
41861;SDS011;27537;57.134;-2.136;2023-11-19T00:32:41;9.95;;;3.80;;
41861;SDS011;27537;57.134;-2.136;2023-11-19T00:35:08;9.38;;;3.65;;
41861;SDS011;27537;57.134;-2.136;2023-11-19T00:37:36;9.25;;;3.33;;
41861;SDS011;27537;57.134;-2.136;2023-11-19T00:40:03;11.57;;;3.55;;
41861;SDS011;27537;57.134;-2.136;2023-11-19T00:42:32;8.77;;;3.53;;
41861;SDS011;27537;57.134;-2.136;2023-11-19T00:44:58;10.15;;;3.90;;
41861;SDS011;27537;57.134;-2.136;2023-11-19T00:47:25;9.32;;;3.17;;
41861;SDS011;27537;57.134;-2.136;2023-11-19T00:49:52;9.85;;;3.45;;
41861;SDS011;27537;57.134;-2.136;2023-11-19T00:52:19;8.95;;;3.25;;
41861;SDS011;27537;57.134;-2.136;2023-11-19T00:54:45;7.57;;;2.78;;
41861;SDS011;27537;57.134;-2.136;2023-11-19T00:57:12;9.50;;;3.08;;
41861;SDS011;27537;57.134;-2.136;2023-11-19T00:59:41;9.43;;;2.95;;
41861;SDS011;27537;57.134;-2.136;2023-11-19T01:02:08;6.97;;;2.60;;
41861;SDS011;27537;57.134;-2.136;2023-11-19T01:04:35;8.30;;;2.58;;
41861;SDS011;27537;57.134;-2.136;2023-11-19T01:07:03;9.80;;;2.60;;
41861;SDS011;27537;57.134;-2.136;2023-11-19T01:09:31;9.23;;;2.80;;
41861;SDS011;27537;57.134;-2.136;2023-11-19T01:11:59;5.18;;;2.10;;
41861;SDS011;27537;57.134;-2.136;2023-11-19T01:14:27;6.75;;;2.45;;
41861;SDS011;27537;57.134;-2.136;2023-11-19T01:16:54;8.55;;;3.17;;
41861;SDS011;27537;57.134;-2.136;2023-11-19T01:19:21;7.32;;;2.45;;
41861;SDS011;27537;57.134;-2.136;2023-11-19T01:21:52;7.82;;;3.00;;
41861;SDS011;27537;57.134;-2.136;2023-11-19T01:24:20;5.93;;;2.13;;
41861;SDS011;27537;57.134;-2.136;2023-11-19T01:26:46;6.45;;;2.22;;
41861;SDS011;27537;57.134;-2.136;2023-11-19T01:29:16;7.07;;;2.03;;
41861;SDS011;27537;57.134;-2.136;2023-11-19T01:31:43;5.22;;;2.13;;
41861;SDS011;27537;57.134;-2.136;2023-11-19T01:34:12;7.53;;;2.63;;
41861;SDS011;27537;57.134;-2.136;2023-11-19T01:36:38;5.18;;;2.00;;
41861;SDS011;27537;57.134;-2.136;2023-11-19T01:39:05;6.45;;;2.13;;
41861;SDS011;27537;57.134;-2.136;2023-11-19T01:41:36;5.75;;;2.10;;
41861;SDS011;27537;57.134;-2.136;2023-11-19T01:44:03;4.88;;;1.88;;
41861;SDS011;27537;57.134;-2.136;2023-11-19T01:46:30;4.55;;;1.70;;
41861;SDS011;27537;57.134;-2.136;2023-11-19T01:48:59;4.55;;;1.50;;
41861;SDS011;27537;57.134;-2.136;2023-11-19T01:51:27;4.00;;;1.60;;
41861;SDS011;27537;57.134;-2.136;2023-11-19T01:53:54;4.88;;;1.80;;
41861;SDS011;27537;57.134;-2.136;2023-11-19T01:56:23;3.92;;;1.58;;
41861;SDS011;27537;57.134;-2.136;2023-11-19T01:58:52;4.55;;;1.67;;
41861;SDS011;27537;57.134;-2.136;2023-11-19T02:01:21;4.68;;;1.70;;
41861;SDS011;27537;57.134;-2.136;2023-11-19T02:03:48;4.80;;;1.80;;
41861;SDS011;27537;57.134;-2.136;2023-11-19T02:06:15;4.40;;;2.00;;
41861;SDS011;27537;57.134;-2.136;2023-11-19T02:08:42;5.25;;;1.73;;
41861;SDS011;27537;57.134;-2.136;2023-11-19T02:11:09;3.42;;;1.42;;
41861;SDS011;27537;57.134;-2.136;2023-11-19T02:13:37;4.35;;;1.77;;
41861;SDS011;27537;57.134;-2.136;2023-11-19T02:16:04;3.78;;;1.55;;
41861;SDS011;27537;57.134;-2.136;2023-11-19T02:18:31;2.60;;;1.25;;
41861;SDS011;27537;57.134;-2.136;2023-11-19T02:20:59;3.17;;;1.40;;
41861;SDS011;27537;57.134;-2.136;2023-11-19T02:23:26;2.67;;;1.13;;
41861;SDS011;27537;57.134;-2.136;2023-11-19T02:26:00;2.95;;;1.20;;
41861;SDS011;27537;57.134;-2.136;2023-11-19T02:28:32;3.33;;;1.30;;
41861;SDS011;27537;57.134;-2.136;2023-11-19T02:31:00;1.90;;;1.10;;
41861;SDS011;27537;57.134;-2.136;2023-11-19T02:33:27;1.90;;;1.00;;
41861;SDS011;27537;57.134;-2.136;2023-11-19T02:35:53;3.83;;;1.10;;
41861;SDS011;27537;57.134;-2.136;2023-11-19T02:38:20;4.53;;;1.50;;
41861;SDS011;27537;57.134;-2.136;2023-11-19T02:40:48;1.38;;;0.90;;
41861;SDS011;27537;57.134;-2.136;2023-11-19T02:43:15;1.48;;;0.88;;
41861;SDS011;27537;57.134;-2.136;2023-11-19T02:45:42;2.85;;;1.20;;
41861;SDS011;27537;57.134;-2.136;2023-11-19T02:48:12;2.08;;;1.00;;
41861;SDS011;27537;57.134;-2.136;2023-11-19T02:50:40;2.63;;;1.00;;
41861;SDS011;27537;57.134;-2.136;2023-11-19T02:53:08;3.65;;;1.08;;
41861;SDS011;27537;57.134;-2.136;2023-11-19T02:55:34;1.25;;;0.88;;
41861;SDS011;27537;57.134;-2.136;2023-11-19T02:58:04;1.42;;;0.93;;
41861;SDS011;27537;57.134;-2.136;2023-11-19T03:00:46;3.70;;;1.20;;
41861;SDS011;27537;57.134;-2.136;2023-11-19T03:03:20;1.75;;;1.00;;
41861;SDS011;27537;57.134;-2.136;2023-11-19T03:05:49;3.80;;;1.67;;
41861;SDS011;27537;57.134;-2.136;2023-11-19T03:08:15;4.13;;;1.15;;
41861;SDS011;27537;57.134;-2.136;2023-11-19T03:10:45;3.70;;;1.20;;
41861;SDS011;27537;57.134;-2.136;2023-11-19T03:13:13;2.00;;;1.00;;
41861;SDS011;27537;57.134;-2.136;2023-11-19T03:15:46;5.88;;;1.00;;
41861;SDS011;27537;57.134;-2.136;2023-11-19T03:18:13;3.53;;;1.25;;
41861;SDS011;27537;57.134;-2.136;2023-11-19T03:20:39;2.95;;;1.15;;
41861;SDS011;27537;57.134;-2.136;2023-11-19T03:23:06;3.95;;;1.48;;
41861;SDS011;27537;57.134;-2.136;2023-11-19T03:25:33;4.05;;;1.20;;
41861;SDS011;27537;57.134;-2.136;2023-11-19T03:28:00;4.78;;;1.25;;
41861;SDS011;27537;57.134;-2.136;2023-11-19T03:30:29;5.18;;;1.10;;
41861;SDS011;27537;57.134;-2.136;2023-11-19T03:32:59;2.78;;;1.10;;
41861;SDS011;27537;57.134;-2.136;2023-11-19T03:35:29;3.20;;;1.20;;
41861;SDS011;27537;57.134;-2.136;2023-11-19T03:37:56;2.20;;;1.10;;
41861;SDS011;27537;57.134;-2.136;2023-11-19T03:40:23;4.07;;;1.20;;
41861;SDS011;27537;57.134;-2.136;2023-11-19T03:42:51;3.78;;;1.10;;
41861;SDS011;27537;57.134;-2.136;2023-11-19T03:45:18;3.30;;;1.20;;
41861;SDS011;27537;57.134;-2.136;2023-11-19T03:47:44;2.28;;;1.00;;
41861;SDS011;27537;57.134;-2.136;2023-11-19T03:50:11;3.70;;;1.20;;
41861;SDS011;27537;57.134;-2.136;2023-11-19T03:52:38;3.35;;;1.10;;
41861;SDS011;27537;57.134;-2.136;2023-11-19T03:55:07;4.47;;;1.23;;
41861;SDS011;27537;57.134;-2.136;2023-11-19T03:57:35;5.13;;;1.30;;
41861;SDS011;27537;57.134;-2.136;2023-11-19T04:00:02;3.10;;;1.20;;
41861;SDS011;27537;57.134;-2.136;2023-11-19T04:02:40;4.00;;;1.30;;
41861;SDS011;27537;57.134;-2.136;2023-11-19T04:05:07;4.25;;;1.30;;
41861;SDS011;27537;57.134;-2.136;2023-11-19T04:07:36;2.90;;;1.33;;
41861;SDS011;27537;57.134;-2.136;2023-11-19T04:10:03;6.25;;;1.40;;
41861;SDS011;27537;57.134;-2.136;2023-11-19T04:12:30;3.38;;;1.30;;
41861;SDS011;27537;57.134;-2.136;2023-11-19T04:14:57;4.00;;;1.40;;
41861;SDS011;27537;57.134;-2.136;2023-11-19T04:17:27;1.95;;;1.00;;
41861;SDS011;27537;57.134;-2.136;2023-11-19T04:19:54;2.50;;;1.17;;
41861;SDS011;27537;57.134;-2.136;2023-11-19T04:22:22;5.43;;;1.65;;
41861;SDS011;27537;57.134;-2.136;2023-11-19T04:24:48;6.32;;;1.77;;
41861;SDS011;27537;57.134;-2.136;2023-11-19T04:27:15;2.88;;;1.08;;
41861;SDS011;27537;57.134;-2.136;2023-11-19T04:29:42;3.40;;;1.17;;
41861;SDS011;27537;57.134;-2.136;2023-11-19T04:32:08;2.83;;;1.25;;
41861;SDS011;27537;57.134;-2.136;2023-11-19T04:34:35;2.22;;;1.00;;
41861;SDS011;27537;57.134;-2.136;2023-11-19T04:37:03;2.92;;;1.10;;
41861;SDS011;27537;57.134;-2.136;2023-11-19T04:39:33;3.85;;;1.20;;
41861;SDS011;27537;57.134;-2.136;2023-11-19T04:42:00;2.58;;;1.20;;
41861;SDS011;27537;57.134;-2.136;2023-11-19T04:44:27;2.78;;;1.33;;
41861;SDS011;27537;57.134;-2.136;2023-11-19T04:46:53;2.78;;;1.10;;
41861;SDS011;27537;57.134;-2.136;2023-11-19T04:49:20;4.60;;;1.08;;
41861;SDS011;27537;57.134;-2.136;2023-11-19T04:51:47;4.13;;;1.30;;
41861;SDS011;27537;57.134;-2.136;2023-11-19T04:54:14;5.10;;;1.20;;
41861;SDS011;27537;57.134;-2.136;2023-11-19T04:56:44;2.92;;;1.10;;
41861;SDS011;27537;57.134;-2.136;2023-11-19T04:59:11;4.53;;;1.17;;
41861;SDS011;27537;57.134;-2.136;2023-11-19T05:01:38;2.83;;;1.10;;
41861;SDS011;27537;57.134;-2.136;2023-11-19T05:04:05;2.13;;;1.15;;
41861;SDS011;27537;57.134;-2.136;2023-11-19T05:06:33;3.08;;;1.10;;
41861;SDS011;27537;57.134;-2.136;2023-11-19T05:09:01;2.28;;;1.00;;
41861;SDS011;27537;57.134;-2.136;2023-11-19T05:11:32;2.00;;;1.00;;
41861;SDS011;27537;57.134;-2.136;2023-11-19T05:14:02;2.90;;;1.13;;
41861;SDS011;27537;57.134;-2.136;2023-11-19T05:16:30;3.05;;;1.10;;
41861;SDS011;27537;57.134;-2.136;2023-11-19T05:18:58;2.45;;;0.90;;
41861;SDS011;27537;57.134;-2.136;2023-11-19T05:21:25;4.88;;;1.13;;
41861;SDS011;27537;57.134;-2.136;2023-11-19T05:23:51;2.33;;;1.08;;
41861;SDS011;27537;57.134;-2.136;2023-11-19T05:26:19;1.08;;;0.80;;
41861;SDS011;27537;57.134;-2.136;2023-11-19T05:28:46;3.83;;;0.90;;
41861;SDS011;27537;57.134;-2.136;2023-11-19T05:31:13;2.10;;;0.90;;
41861;SDS011;27537;57.134;-2.136;2023-11-19T05:33:40;2.10;;;0.73;;
41861;SDS011;27537;57.134;-2.136;2023-11-19T05:36:06;2.10;;;1.23;;
41861;SDS011;27537;57.134;-2.136;2023-11-19T05:38:35;2.38;;;0.90;;
41861;SDS011;27537;57.134;-2.136;2023-11-19T05:41:03;1.90;;;0.95;;
41861;SDS011;27537;57.134;-2.136;2023-11-19T05:43:31;1.65;;;1.00;;
41861;SDS011;27537;57.134;-2.136;2023-11-19T05:45:58;2.05;;;0.93;;
41861;SDS011;27537;57.134;-2.136;2023-11-19T05:48:26;1.38;;;0.90;;
41861;SDS011;27537;57.134;-2.136;2023-11-19T05:50:53;1.40;;;0.85;;
41861;SDS011;27537;57.134;-2.136;2023-11-19T05:53:20;2.35;;;0.90;;
41861;SDS011;27537;57.134;-2.136;2023-11-19T05:55:46;1.42;;;0.90;;
41861;SDS011;27537;57.134;-2.136;2023-11-19T05:58:29;3.15;;;1.10;;
41861;SDS011;27537;57.134;-2.136;2023-11-19T06:00:56;3.42;;;1.00;;
41861;SDS011;27537;57.134;-2.136;2023-11-19T06:03:23;2.17;;;0.95;;
41861;SDS011;27537;57.134;-2.136;2023-11-19T06:05:50;4.35;;;0.93;;
41861;SDS011;27537;57.134;-2.136;2023-11-19T06:08:17;3.05;;;0.90;;
41861;SDS011;27537;57.134;-2.136;2023-11-19T06:10:44;0.90;;;0.80;;
41861;SDS011;27537;57.134;-2.136;2023-11-19T06:13:13;2.28;;;0.90;;
41861;SDS011;27537;57.134;-2.136;2023-11-19T06:15:42;1.65;;;1.00;;
41861;SDS011;27537;57.134;-2.136;2023-11-19T06:18:09;2.42;;;1.05;;
41861;SDS011;27537;57.134;-2.136;2023-11-19T06:20:38;3.28;;;1.20;;
41861;SDS011;27537;57.134;-2.136;2023-11-19T06:23:08;2.08;;;1.10;;
41861;SDS011;27537;57.134;-2.136;2023-11-19T06:25:34;2.70;;;1.10;;
41861;SDS011;27537;57.134;-2.136;2023-11-19T06:28:02;2.70;;;1.00;;
41861;SDS011;27537;57.134;-2.136;2023-11-19T06:30:29;3.42;;;0.90;;
41861;SDS011;27537;57.134;-2.136;2023-11-19T06:32:58;2.13;;;1.05;;
41861;SDS011;27537;57.134;-2.136;2023-11-19T06:35:26;3.35;;;1.15;;
41861;SDS011;27537;57.134;-2.136;2023-11-19T06:37:53;2.63;;;0.82;;
41861;SDS011;27537;57.134;-2.136;2023-11-19T06:40:21;2.88;;;1.00;;
41861;SDS011;27537;57.134;-2.136;2023-11-19T06:42:47;2.25;;;0.90;;
41861;SDS011;27537;57.134;-2.136;2023-11-19T06:45:14;2.00;;;0.90;;
41861;SDS011;27537;57.134;-2.136;2023-11-19T06:47:41;2.47;;;0.90;;
41861;SDS011;27537;57.134;-2.136;2023-11-19T06:50:07;2.83;;;0.90;;
41861;SDS011;27537;57.134;-2.136;2023-11-19T06:52:35;2.38;;;0.98;;
41861;SDS011;27537;57.134;-2.136;2023-11-19T06:55:04;2.55;;;1.00;;
41861;SDS011;27537;57.134;-2.136;2023-11-19T06:57:34;3.22;;;1.00;;
41861;SDS011;27537;57.134;-2.136;2023-11-19T07:00:01;2.78;;;0.98;;
41861;SDS011;27537;57.134;-2.136;2023-11-19T07:02:28;2.00;;;1.00;;
41861;SDS011;27537;57.134;-2.136;2023-11-19T07:04:55;1.85;;;0.90;;
41861;SDS011;27537;57.134;-2.136;2023-11-19T07:07:22;2.08;;;0.90;;
41861;SDS011;27537;57.134;-2.136;2023-11-19T07:09:48;1.77;;;1.00;;
41861;SDS011;27537;57.134;-2.136;2023-11-19T07:12:16;1.55;;;0.90;;
41861;SDS011;27537;57.134;-2.136;2023-11-19T07:14:42;1.73;;;0.85;;
41861;SDS011;27537;57.134;-2.136;2023-11-19T07:17:09;1.10;;;0.82;;
41861;SDS011;27537;57.134;-2.136;2023-11-19T07:19:36;1.55;;;0.90;;
41861;SDS011;27537;57.134;-2.136;2023-11-19T07:22:05;1.48;;;0.80;;
41861;SDS011;27537;57.134;-2.136;2023-11-19T07:24:33;1.98;;;1.00;;
41861;SDS011;27537;57.134;-2.136;2023-11-19T07:27:00;1.55;;;0.90;;
41861;SDS011;27537;57.134;-2.136;2023-11-19T07:29:27;1.15;;;0.80;;
41861;SDS011;27537;57.134;-2.136;2023-11-19T07:31:55;3.65;;;1.20;;
41861;SDS011;27537;57.134;-2.136;2023-11-19T07:34:23;1.65;;;1.00;;
41861;SDS011;27537;57.134;-2.136;2023-11-19T07:36:51;2.67;;;0.90;;
41861;SDS011;27537;57.134;-2.136;2023-11-19T07:39:18;2.92;;;1.00;;
41861;SDS011;27537;57.134;-2.136;2023-11-19T07:41:47;2.90;;;1.15;;
41861;SDS011;27537;57.134;-2.136;2023-11-19T07:44:14;2.03;;;0.98;;
41861;SDS011;27537;57.134;-2.136;2023-11-19T07:46:41;2.53;;;0.98;;
41861;SDS011;27537;57.134;-2.136;2023-11-19T07:49:08;1.08;;;0.80;;
41861;SDS011;27537;57.134;-2.136;2023-11-19T07:51:36;2.10;;;1.00;;
41861;SDS011;27537;57.134;-2.136;2023-11-19T07:54:03;2.65;;;1.05;;
41861;SDS011;27537;57.134;-2.136;2023-11-19T07:56:31;1.70;;;0.90;;
41861;SDS011;27537;57.134;-2.136;2023-11-19T07:59:01;1.92;;;0.88;;
41861;SDS011;27537;57.134;-2.136;2023-11-19T08:01:30;1.42;;;0.95;;
41861;SDS011;27537;57.134;-2.136;2023-11-19T08:03:57;2.00;;;0.90;;
41861;SDS011;27537;57.134;-2.136;2023-11-19T08:06:25;2.65;;;0.90;;
41861;SDS011;27537;57.134;-2.136;2023-11-19T08:08:52;3.78;;;1.00;;
41861;SDS011;27537;57.134;-2.136;2023-11-19T08:11:19;2.70;;;1.02;;
41861;SDS011;27537;57.134;-2.136;2023-11-19T08:13:46;3.38;;;1.10;;
41861;SDS011;27537;57.134;-2.136;2023-11-19T08:16:13;2.92;;;1.20;;
41861;SDS011;27537;57.134;-2.136;2023-11-19T08:18:44;3.67;;;1.52;;
41861;SDS011;27537;57.134;-2.136;2023-11-19T08:21:11;8.35;;;1.60;;
41861;SDS011;27537;57.134;-2.136;2023-11-19T08:23:37;5.85;;;1.38;;
41861;SDS011;27537;57.134;-2.136;2023-11-19T08:26:05;3.20;;;1.20;;
41861;SDS011;27537;57.134;-2.136;2023-11-19T08:28:33;3.20;;;1.10;;
41861;SDS011;27537;57.134;-2.136;2023-11-19T08:31:01;2.22;;;1.10;;
41861;SDS011;27537;57.134;-2.136;2023-11-19T08:33:31;3.50;;;0.93;;
41861;SDS011;27537;57.134;-2.136;2023-11-19T08:35:58;4.30;;;1.25;;
41861;SDS011;27537;57.134;-2.136;2023-11-19T08:38:25;2.20;;;0.95;;
41861;SDS011;27537;57.134;-2.136;2023-11-19T08:40:54;3.10;;;1.15;;
41861;SDS011;27537;57.134;-2.136;2023-11-19T08:43:26;4.70;;;1.23;;
41861;SDS011;27537;57.134;-2.136;2023-11-19T08:45:53;2.53;;;1.00;;
41861;SDS011;27537;57.134;-2.136;2023-11-19T08:48:20;6.25;;;1.45;;
41861;SDS011;27537;57.134;-2.136;2023-11-19T08:50:47;3.00;;;1.27;;
41861;SDS011;27537;57.134;-2.136;2023-11-19T08:53:14;2.50;;;1.00;;
41861;SDS011;27537;57.134;-2.136;2023-11-19T08:55:41;4.00;;;1.17;;
41861;SDS011;27537;57.134;-2.136;2023-11-19T08:58:08;2.50;;;1.10;;
41861;SDS011;27537;57.134;-2.136;2023-11-19T09:00:35;3.92;;;1.40;;
41861;SDS011;27537;57.134;-2.136;2023-11-19T09:03:02;1.95;;;1.00;;
41861;SDS011;27537;57.134;-2.136;2023-11-19T09:05:29;3.75;;;1.10;;
41861;SDS011;27537;57.134;-2.136;2023-11-19T09:07:56;3.63;;;1.38;;
41861;SDS011;27537;57.134;-2.136;2023-11-19T09:10:23;5.60;;;1.38;;
41861;SDS011;27537;57.134;-2.136;2023-11-19T09:12:49;1.77;;;1.00;;
41861;SDS011;27537;57.134;-2.136;2023-11-19T09:15:16;3.65;;;1.10;;
41861;SDS011;27537;57.134;-2.136;2023-11-19T09:17:43;2.33;;;1.10;;
41861;SDS011;27537;57.134;-2.136;2023-11-19T09:20:10;5.10;;;1.48;;
41861;SDS011;27537;57.134;-2.136;2023-11-19T09:22:38;5.72;;;1.23;;
41861;SDS011;27537;57.134;-2.136;2023-11-19T09:25:05;4.82;;;1.40;;
41861;SDS011;27537;57.134;-2.136;2023-11-19T09:27:32;3.63;;;1.25;;
41861;SDS011;27537;57.134;-2.136;2023-11-19T09:29:59;2.80;;;1.30;;
41861;SDS011;27537;57.134;-2.136;2023-11-19T09:32:26;2.30;;;1.10;;
41861;SDS011;27537;57.134;-2.136;2023-11-19T09:34:53;2.05;;;1.00;;
41861;SDS011;27537;57.134;-2.136;2023-11-19T09:37:20;4.28;;;0.93;;
41861;SDS011;27537;57.134;-2.136;2023-11-19T09:39:47;2.40;;;1.10;;
41861;SDS011;27537;57.134;-2.136;2023-11-19T09:42:14;3.85;;;1.05;;
41861;SDS011;27537;57.134;-2.136;2023-11-19T09:44:40;1.85;;;0.95;;
41861;SDS011;27537;57.134;-2.136;2023-11-19T09:47:10;3.85;;;1.08;;
41861;SDS011;27537;57.134;-2.136;2023-11-19T09:49:38;1.80;;;0.95;;
41861;SDS011;27537;57.134;-2.136;2023-11-19T09:52:05;6.15;;;1.35;;
41861;SDS011;27537;57.134;-2.136;2023-11-19T09:54:32;2.35;;;1.00;;
41861;SDS011;27537;57.134;-2.136;2023-11-19T09:56:59;2.78;;;1.05;;
41861;SDS011;27537;57.134;-2.136;2023-11-19T09:59:30;1.42;;;0.95;;
41861;SDS011;27537;57.134;-2.136;2023-11-19T10:01:58;4.28;;;1.38;;
41861;SDS011;27537;57.134;-2.136;2023-11-19T10:04:25;4.13;;;1.48;;
41861;SDS011;27537;57.134;-2.136;2023-11-19T10:06:56;3.88;;;1.63;;
41861;SDS011;27537;57.134;-2.136;2023-11-19T10:09:23;2.97;;;1.00;;
41861;SDS011;27537;57.134;-2.136;2023-11-19T10:11:50;3.45;;;1.10;;
41861;SDS011;27537;57.134;-2.136;2023-11-19T10:14:17;2.50;;;1.10;;
41861;SDS011;27537;57.134;-2.136;2023-11-19T10:16:47;1.75;;;1.00;;
41861;SDS011;27537;57.134;-2.136;2023-11-19T10:19:20;3.55;;;1.15;;
41861;SDS011;27537;57.134;-2.136;2023-11-19T10:21:47;2.35;;;1.00;;
41861;SDS011;27537;57.134;-2.136;2023-11-19T10:24:14;4.30;;;1.17;;
41861;SDS011;27537;57.134;-2.136;2023-11-19T10:26:56;3.03;;;1.00;;
41861;SDS011;27537;57.134;-2.136;2023-11-19T10:29:23;3.33;;;1.25;;
41861;SDS011;27537;57.134;-2.136;2023-11-19T10:31:56;3.20;;;1.10;;
41861;SDS011;27537;57.134;-2.136;2023-11-19T10:34:44;2.63;;;1.25;;
41861;SDS011;27537;57.134;-2.136;2023-11-19T10:40:09;3.92;;;1.58;;
41861;SDS011;27537;57.134;-2.136;2023-11-19T10:42:37;5.15;;;1.90;;
41861;SDS011;27537;57.134;-2.136;2023-11-19T10:45:04;8.77;;;3.80;;
41861;SDS011;27537;57.134;-2.136;2023-11-19T10:47:31;8.40;;;2.60;;
41861;SDS011;27537;57.134;-2.136;2023-11-19T10:50:03;8.48;;;2.70;;
41861;SDS011;27537;57.134;-2.136;2023-11-19T10:52:32;6.82;;;2.38;;
41861;SDS011;27537;57.134;-2.136;2023-11-19T10:55:00;5.63;;;1.77;;
41861;SDS011;27537;57.134;-2.136;2023-11-19T10:57:31;4.28;;;1.50;;
41861;SDS011;27537;57.134;-2.136;2023-11-19T11:00:03;4.30;;;1.65;;
41861;SDS011;27537;57.134;-2.136;2023-11-19T11:02:37;3.97;;;1.48;;
41861;SDS011;27537;57.134;-2.136;2023-11-19T11:05:08;3.63;;;1.27;;
41861;SDS011;27537;57.134;-2.136;2023-11-19T11:07:37;4.43;;;1.38;;
41861;SDS011;27537;57.134;-2.136;2023-11-19T11:10:07;3.25;;;1.33;;
41861;SDS011;27537;57.134;-2.136;2023-11-19T11:12:36;4.25;;;1.20;;
41861;SDS011;27537;57.134;-2.136;2023-11-19T11:15:08;4.95;;;1.30;;
41861;SDS011;27537;57.134;-2.136;2023-11-19T11:17:42;2.15;;;1.00;;
41861;SDS011;27537;57.134;-2.136;2023-11-19T11:20:11;3.88;;;1.17;;
41861;SDS011;27537;57.134;-2.136;2023-11-19T11:22:44;3.33;;;1.10;;
41861;SDS011;27537;57.134;-2.136;2023-11-19T11:27:51;2.40;;;0.90;;
41861;SDS011;27537;57.134;-2.136;2023-11-19T11:30:24;2.17;;;1.00;;
41861;SDS011;27537;57.134;-2.136;2023-11-19T11:33:34;3.65;;;1.00;;
41861;SDS011;27537;57.134;-2.136;2023-11-19T11:36:28;2.35;;;1.10;;
41861;SDS011;27537;57.134;-2.136;2023-11-19T11:39:04;6.15;;;1.40;;
41861;SDS011;27537;57.134;-2.136;2023-11-19T11:41:34;3.72;;;1.13;;
41861;SDS011;27537;57.134;-2.136;2023-11-19T11:44:01;2.15;;;0.90;;
41861;SDS011;27537;57.134;-2.136;2023-11-19T11:49:07;2.85;;;1.10;;
41861;SDS011;27537;57.134;-2.136;2023-11-19T11:57:06;3.25;;;1.02;;
41861;SDS011;27537;57.134;-2.136;2023-11-19T11:59:43;2.95;;;1.00;;
41861;SDS011;27537;57.134;-2.136;2023-11-19T12:02:17;1.50;;;0.85;;
41861;SDS011;27537;57.134;-2.136;2023-11-19T12:04:49;2.63;;;1.05;;
41861;SDS011;27537;57.134;-2.136;2023-11-19T12:07:18;2.47;;;1.00;;
41861;SDS011;27537;57.134;-2.136;2023-11-19T12:09:51;2.85;;;1.02;;
41861;SDS011;27537;57.134;-2.136;2023-11-19T12:12:22;2.63;;;0.95;;
41861;SDS011;27537;57.134;-2.136;2023-11-19T12:20:07;3.42;;;1.20;;
41861;SDS011;27537;57.134;-2.136;2023-11-19T12:22:38;2.97;;;1.25;;
41861;SDS011;27537;57.134;-2.136;2023-11-19T12:25:06;7.78;;;4.88;;
41861;SDS011;27537;57.134;-2.136;2023-11-19T12:27:44;4.97;;;2.08;;
41861;SDS011;27537;57.134;-2.136;2023-11-19T12:30:12;2.45;;;1.40;;
41861;SDS011;27537;57.134;-2.136;2023-11-19T12:32:44;2.45;;;1.20;;
41861;SDS011;27537;57.134;-2.136;2023-11-19T12:35:12;2.75;;;1.27;;
41861;SDS011;27537;57.134;-2.136;2023-11-19T12:37:42;4.93;;;1.45;;
41861;SDS011;27537;57.134;-2.136;2023-11-19T12:40:18;3.85;;;1.40;;
41861;SDS011;27537;57.134;-2.136;2023-11-19T12:42:52;3.40;;;1.38;;
41861;SDS011;27537;57.134;-2.136;2023-11-19T12:45:20;3.78;;;1.48;;
41861;SDS011;27537;57.134;-2.136;2023-11-19T12:47:48;4.63;;;1.50;;
41861;SDS011;27537;57.134;-2.136;2023-11-19T12:50:16;4.97;;;1.70;;
41861;SDS011;27537;57.134;-2.136;2023-11-19T12:52:56;5.75;;;2.00;;
41861;SDS011;27537;57.134;-2.136;2023-11-19T12:55:28;6.13;;;1.92;;
41861;SDS011;27537;57.134;-2.136;2023-11-19T12:57:56;5.25;;;2.00;;
41861;SDS011;27537;57.134;-2.136;2023-11-19T13:00:26;7.22;;;2.53;;
41861;SDS011;27537;57.134;-2.136;2023-11-19T13:02:54;4.28;;;1.73;;
41861;SDS011;27537;57.134;-2.136;2023-11-19T13:05:26;5.85;;;1.90;;
41861;SDS011;27537;57.134;-2.136;2023-11-19T13:08:04;4.10;;;1.65;;
41861;SDS011;27537;57.134;-2.136;2023-11-19T13:10:53;5.90;;;1.77;;
41861;SDS011;27537;57.134;-2.136;2023-11-19T13:13:20;4.95;;;1.65;;
41861;SDS011;27537;57.134;-2.136;2023-11-19T13:15:46;6.32;;;2.60;;
41861;SDS011;27537;57.134;-2.136;2023-11-19T13:18:15;7.32;;;2.15;;
41861;SDS011;27537;57.134;-2.136;2023-11-19T13:20:43;5.80;;;1.95;;
41861;SDS011;27537;57.134;-2.136;2023-11-19T13:23:10;5.35;;;1.77;;
41861;SDS011;27537;57.134;-2.136;2023-11-19T13:25:36;6.38;;;1.92;;
41861;SDS011;27537;57.134;-2.136;2023-11-19T13:28:03;4.15;;;1.40;;
41861;SDS011;27537;57.134;-2.136;2023-11-19T13:30:30;6.20;;;1.65;;
41861;SDS011;27537;57.134;-2.136;2023-11-19T13:32:57;3.85;;;1.40;;
41861;SDS011;27537;57.134;-2.136;2023-11-19T13:35:23;5.13;;;1.20;;
41861;SDS011;27537;57.134;-2.136;2023-11-19T13:37:51;3.13;;;1.13;;
41861;SDS011;27537;57.134;-2.136;2023-11-19T13:40:18;1.63;;;0.98;;
41861;SDS011;27537;57.134;-2.136;2023-11-19T13:42:46;2.22;;;1.02;;
41861;SDS011;27537;57.134;-2.136;2023-11-19T13:45:13;2.35;;;0.98;;
41861;SDS011;27537;57.134;-2.136;2023-11-19T13:47:42;3.83;;;1.10;;
41861;SDS011;27537;57.134;-2.136;2023-11-19T13:50:10;1.95;;;1.00;;
41861;SDS011;27537;57.134;-2.136;2023-11-19T13:52:38;3.45;;;1.27;;
41861;SDS011;27537;57.134;-2.136;2023-11-19T13:55:06;4.82;;;1.30;;
41861;SDS011;27537;57.134;-2.136;2023-11-19T13:57:35;3.20;;;1.25;;
41861;SDS011;27537;57.134;-2.136;2023-11-19T14:00:03;3.47;;;1.27;;
41861;SDS011;27537;57.134;-2.136;2023-11-19T14:02:33;4.00;;;1.58;;
41861;SDS011;27537;57.134;-2.136;2023-11-19T14:05:00;3.08;;;1.35;;
41861;SDS011;27537;57.134;-2.136;2023-11-19T14:07:27;2.22;;;1.10;;
41861;SDS011;27537;57.134;-2.136;2023-11-19T14:09:54;5.97;;;1.83;;
41861;SDS011;27537;57.134;-2.136;2023-11-19T14:12:20;4.97;;;1.30;;
41861;SDS011;27537;57.134;-2.136;2023-11-19T14:14:47;4.20;;;1.48;;
41861;SDS011;27537;57.134;-2.136;2023-11-19T14:17:14;4.85;;;1.80;;
41861;SDS011;27537;57.134;-2.136;2023-11-19T14:19:42;3.53;;;1.50;;
41861;SDS011;27537;57.134;-2.136;2023-11-19T14:22:09;4.07;;;1.60;;
41861;SDS011;27537;57.134;-2.136;2023-11-19T14:24:36;5.10;;;1.85;;
41861;SDS011;27537;57.134;-2.136;2023-11-19T14:27:03;4.30;;;1.60;;
41861;SDS011;27537;57.134;-2.136;2023-11-19T14:29:29;3.88;;;1.60;;
41861;SDS011;27537;57.134;-2.136;2023-11-19T14:31:57;5.38;;;1.77;;
41861;SDS011;27537;57.134;-2.136;2023-11-19T14:34:25;2.85;;;1.38;;
41861;SDS011;27537;57.134;-2.136;2023-11-19T14:36:52;5.13;;;1.77;;
41861;SDS011;27537;57.134;-2.136;2023-11-19T14:39:20;4.28;;;1.50;;
41861;SDS011;27537;57.134;-2.136;2023-11-19T14:41:47;4.53;;;1.48;;
41861;SDS011;27537;57.134;-2.136;2023-11-19T14:44:13;3.53;;;1.50;;
41861;SDS011;27537;57.134;-2.136;2023-11-19T14:46:40;4.95;;;1.85;;
41861;SDS011;27537;57.134;-2.136;2023-11-19T14:49:07;4.65;;;1.70;;
41861;SDS011;27537;57.134;-2.136;2023-11-19T14:51:37;3.80;;;1.40;;
41861;SDS011;27537;57.134;-2.136;2023-11-19T14:54:04;4.50;;;1.52;;
41861;SDS011;27537;57.134;-2.136;2023-11-19T14:56:31;5.00;;;1.48;;
41861;SDS011;27537;57.134;-2.136;2023-11-19T14:58:58;3.72;;;1.65;;
41861;SDS011;27537;57.134;-2.136;2023-11-19T15:01:25;3.97;;;1.40;;